createdAt,value
2023-03-06T00:01:20.213Z,3.90
2023-03-06T00:03:49.067Z,4.00
2023-03-06T00:06:18.173Z,3.90
2023-03-06T00:08:47.168Z,3.90
2023-03-06T00:11:17.629Z,3.90
2023-03-06T00:13:46.583Z,4.00
2023-03-06T00:16:15.283Z,4.00
2023-03-06T00:18:45.403Z,3.90
2023-03-06T00:21:14.076Z,3.90
2023-03-06T00:23:43.004Z,3.90
2023-03-06T00:26:12.326Z,3.90
2023-03-06T00:28:45.163Z,3.90
2023-03-06T00:31:14.225Z,3.90
2023-03-06T00:33:43.866Z,3.90
2023-03-06T00:36:12.633Z,3.90
2023-03-06T00:38:42.895Z,3.90
2023-03-06T00:41:12.356Z,3.90
2023-03-06T00:43:41.569Z,3.80
2023-03-06T00:46:12.058Z,3.80
2023-03-06T00:48:41.455Z,3.80
2023-03-06T00:51:12.075Z,3.80
2023-03-06T00:53:42.510Z,3.80
2023-03-06T00:56:11.155Z,3.80
2023-03-06T00:58:39.911Z,3.70
2023-03-06T01:01:08.757Z,3.80
2023-03-06T01:03:39.136Z,3.70
2023-03-06T01:06:09.677Z,3.80
2023-03-06T01:08:38.288Z,3.70
2023-03-06T01:11:07.809Z,3.80
2023-03-06T01:13:36.868Z,3.70
2023-03-06T01:16:10.648Z,3.70
2023-03-06T01:18:41.864Z,3.80
2023-03-06T01:21:11.254Z,3.80
2023-03-06T01:23:40.646Z,3.80
2023-03-06T01:26:09.828Z,3.80
2023-03-06T01:28:39.451Z,3.80
2023-03-06T01:31:09.140Z,3.80
2023-03-06T01:33:37.974Z,3.70
2023-03-06T01:36:10.814Z,3.70
2023-03-06T01:38:40.073Z,3.70
2023-03-06T01:41:11.184Z,3.70
2023-03-06T01:43:42.681Z,3.70
2023-03-06T01:46:32.564Z,3.70
2023-03-06T01:49:07.202Z,3.70
2023-03-06T01:51:40.376Z,3.60
2023-03-06T01:54:16.948Z,3.60
2023-03-06T01:56:49.793Z,3.60
2023-03-06T01:59:20.265Z,3.50
2023-03-06T02:01:49.771Z,3.40
2023-03-06T02:04:20.401Z,3.40
2023-03-06T02:06:52.491Z,3.40
2023-03-06T02:09:22.132Z,3.40
2023-03-06T02:11:54.126Z,3.40
2023-03-06T02:14:23.612Z,3.40
2023-03-06T02:16:53.392Z,3.40
2023-03-06T02:19:34.590Z,3.40
2023-03-06T02:22:06.469Z,3.40
2023-03-06T02:24:42.774Z,3.40
2023-03-06T02:27:18.034Z,3.40
2023-03-06T02:29:47.146Z,3.50
2023-03-06T02:32:17.137Z,3.50
2023-03-06T02:34:58.603Z,3.50
2023-03-06T02:37:29.572Z,3.50
2023-03-06T02:40:08.540Z,3.50
2023-03-06T02:42:40.167Z,3.50
2023-03-06T02:45:16.882Z,3.60
2023-03-06T02:47:46.361Z,3.60
2023-03-06T02:50:15.989Z,3.60
2023-03-06T02:52:45.322Z,3.60
2023-03-06T02:55:14.297Z,3.60
2023-03-06T02:57:44.873Z,3.70
2023-03-06T03:00:16.690Z,3.70
2023-03-06T03:02:47.092Z,3.70
2023-03-06T03:05:16.398Z,3.70
2023-03-06T03:07:49.308Z,3.60
2023-03-06T03:10:19.260Z,3.60
2023-03-06T03:12:51.734Z,3.60
2023-03-06T03:15:22.164Z,3.60
2023-03-06T03:17:51.440Z,3.50
2023-03-06T03:20:22.977Z,3.60
2023-03-06T03:22:54.093Z,3.60
2023-03-06T03:25:24.750Z,3.60
2023-03-06T03:27:58.458Z,3.60
2023-03-06T03:30:28.568Z,3.60
2023-03-06T03:32:57.632Z,3.60
2023-03-06T03:35:26.988Z,3.60
2023-03-06T03:37:55.798Z,3.50
2023-03-06T03:40:26.589Z,3.50
2023-03-06T03:42:58.750Z,3.50
2023-03-06T03:45:28.427Z,3.40
2023-03-06T03:47:57.960Z,3.30
2023-03-06T03:50:27.662Z,3.40
2023-03-06T03:52:56.796Z,3.40
2023-03-06T03:55:27.700Z,3.40
2023-03-06T03:57:59.424Z,3.40
2023-03-06T04:00:30.094Z,3.40
2023-03-06T04:03:08.991Z,3.50
2023-03-06T04:05:42.030Z,3.50
2023-03-06T04:08:14.201Z,3.50
2023-03-06T04:10:46.857Z,3.50
2023-03-06T04:13:21.570Z,3.50
2023-03-06T04:15:54.110Z,3.50
2023-03-06T04:18:25.928Z,3.50
2023-03-06T04:20:59.834Z,3.60
2023-03-06T04:23:30.205Z,3.60
2023-03-06T04:25:59.627Z,3.60
2023-03-06T04:28:31.183Z,3.60
2023-03-06T04:31:01.598Z,3.60
2023-03-06T04:33:32.083Z,3.60
2023-03-06T04:36:01.694Z,3.50
2023-03-06T04:38:33.426Z,3.60
2023-03-06T04:41:05.340Z,3.60
2023-03-06T04:43:36.024Z,3.50
2023-03-06T04:46:06.120Z,3.50
2023-03-06T04:48:36.717Z,3.50
2023-03-06T04:51:06.438Z,3.60
2023-03-06T04:53:35.842Z,3.50
2023-03-06T04:56:05.145Z,3.50
2023-03-06T04:58:38.998Z,3.40
2023-03-06T05:01:08.896Z,3.40
2023-03-06T05:03:38.311Z,3.50
2023-03-06T05:06:07.878Z,3.50
2023-03-06T05:08:37.263Z,3.40
2023-03-06T05:11:07.257Z,3.40
2023-03-06T05:13:40.355Z,3.30
2023-03-06T05:16:10.626Z,3.40
2023-03-06T05:18:40.939Z,3.30
2023-03-06T05:21:10.659Z,3.30
2023-03-06T05:23:40.511Z,3.30
2023-03-06T05:26:11.335Z,3.30
2023-03-06T05:28:43.394Z,3.30
2023-03-06T05:31:13.074Z,3.30
2023-03-06T05:33:42.885Z,3.20
2023-03-06T05:36:12.999Z,3.20
2023-03-06T05:38:42.511Z,3.20
2023-03-06T05:41:14.948Z,3.20
2023-03-06T05:43:46.630Z,3.20
2023-03-06T05:46:16.435Z,3.10
2023-03-06T05:48:46.938Z,3.20
2023-03-06T05:51:16.333Z,3.20
2023-03-06T05:53:45.437Z,3.10
2023-03-06T05:56:15.680Z,3.10
2023-03-06T05:58:46.865Z,3.20
2023-03-06T06:01:18.495Z,3.20
2023-03-06T06:03:47.627Z,3.20
2023-03-06T06:06:17.306Z,3.20
2023-03-06T06:08:46.633Z,3.20
2023-03-06T06:11:18.587Z,3.10
2023-03-06T06:13:51.874Z,3.10
2023-03-06T06:16:21.720Z,3.10
2023-03-06T06:18:50.887Z,3.10
2023-03-06T06:21:20.900Z,3.10
2023-03-06T06:23:51.817Z,3.10
2023-03-06T06:26:23.171Z,3.10
2023-03-06T06:28:59.045Z,3.10
2023-03-06T06:31:29.704Z,3.20
2023-03-06T06:33:59.548Z,3.20
2023-03-06T06:36:32.366Z,3.20
2023-03-06T06:39:02.306Z,3.20
2023-03-06T06:41:53.041Z,3.20
2023-03-06T06:44:23.741Z,3.20
2023-03-06T06:49:44.477Z,3.20
2023-03-06T06:52:13.594Z,3.30
2023-03-06T06:54:43.182Z,3.30
2023-03-06T06:57:13.788Z,3.30
2023-03-06T06:59:45.819Z,3.30
2023-03-06T07:02:17.299Z,3.40
2023-03-06T07:05:02.551Z,3.50
2023-03-06T07:07:33.710Z,3.50
2023-03-06T07:10:04.550Z,3.40
2023-03-06T07:12:35.566Z,3.50
2023-03-06T07:15:08.396Z,3.50
2023-03-06T07:17:38.269Z,3.60
2023-03-06T07:20:09.249Z,3.60
2023-03-06T07:22:50.355Z,3.70
2023-03-06T07:25:20.704Z,3.70
2023-03-06T07:27:53.684Z,3.70
2023-03-06T07:30:25.293Z,3.70
2023-03-06T07:32:56.032Z,3.80
2023-03-06T07:35:26.236Z,3.80
2023-03-06T07:37:56.433Z,3.80
2023-03-06T07:40:26.077Z,3.90
2023-03-06T07:43:12.917Z,3.90
2023-03-06T07:45:58.596Z,3.90
2023-03-06T07:48:31.271Z,3.90
2023-03-06T07:51:02.296Z,3.90
2023-03-06T07:53:35.315Z,3.90
2023-03-06T07:56:09.492Z,3.90
2023-03-06T07:58:39.510Z,3.90
2023-03-06T08:01:13.114Z,4.00
2023-03-06T08:03:48.342Z,4.00
2023-03-06T08:06:23.315Z,4.00
2023-03-06T08:08:55.098Z,4.20
2023-03-06T08:11:28.854Z,4.30
2023-03-06T08:13:58.975Z,4.30
2023-03-06T08:16:31.795Z,4.40
2023-03-06T08:19:01.511Z,4.60
2023-03-06T08:21:31.457Z,4.60
2023-03-06T08:24:00.844Z,4.70
2023-03-06T08:26:32.213Z,4.70
2023-03-06T08:29:03.430Z,4.60
2023-03-06T08:31:36.296Z,4.40
2023-03-06T08:34:07.431Z,4.40
2023-03-06T08:36:36.535Z,4.50
2023-03-06T08:39:06.331Z,4.50
2023-03-06T08:41:35.997Z,4.50
2023-03-06T08:44:06.200Z,4.60
2023-03-06T08:46:37.950Z,4.60
2023-03-06T08:49:07.226Z,4.50
2023-03-06T08:51:36.232Z,4.50
2023-03-06T08:54:05.499Z,4.40
2023-03-06T08:56:36.259Z,4.30
2023-03-06T08:59:07.513Z,4.20
2023-03-06T09:01:39.349Z,4.10
2023-03-06T09:04:11.021Z,4.00
2023-03-06T09:06:42.860Z,3.90
2023-03-06T09:09:11.822Z,3.70
2023-03-06T09:11:41.254Z,3.70
2023-03-06T09:14:10.123Z,3.70
2023-03-06T09:16:40.769Z,3.80
2023-03-06T09:19:10.246Z,3.80
2023-03-06T09:21:39.630Z,3.80
2023-03-06T09:24:09.530Z,3.80
2023-03-06T09:26:46.170Z,3.60
2023-03-06T09:29:16.630Z,3.70
2023-03-06T09:31:47.001Z,3.70
2023-03-06T09:34:15.939Z,3.60
2023-03-06T09:36:56.750Z,3.80
2023-03-06T09:39:27.566Z,4.00
2023-03-06T09:41:58.625Z,4.00
2023-03-06T09:44:29.546Z,4.10
2023-03-06T09:47:37.007Z,4.20
2023-03-06T09:50:15.842Z,4.20
2023-03-06T09:52:57.266Z,4.30
2023-03-06T09:55:28.704Z,4.30
2023-03-06T09:58:07.145Z,4.30
2023-03-06T10:00:42.051Z,4.30
2023-03-06T10:03:25.929Z,4.40
2023-03-06T10:06:02.587Z,4.50
2023-03-06T10:08:45.876Z,4.60
2023-03-06T10:11:20.254Z,4.50
2023-03-06T10:13:55.910Z,4.60
2023-03-06T10:16:29.596Z,4.70
2023-03-06T10:19:03.546Z,4.80
2023-03-06T10:21:44.347Z,4.90
2023-03-06T10:24:26.616Z,5.10
2023-03-06T10:27:01.679Z,5.20
2023-03-06T10:29:50.168Z,5.10
2023-03-06T10:32:39.541Z,5.00
2023-03-06T10:35:21.644Z,5.10
2023-03-06T10:37:51.130Z,5.00
2023-03-06T10:40:22.154Z,4.90
2023-03-06T10:42:58.694Z,4.90
2023-03-06T10:45:49.859Z,5.10
2023-03-06T10:48:23.038Z,5.30
2023-03-06T10:50:55.122Z,5.50
2023-03-06T10:53:29.294Z,5.80
2023-03-06T10:55:59.478Z,6.10
2023-03-06T10:58:30.311Z,6.40
2023-03-06T11:01:07.436Z,6.60
2023-03-06T11:03:37.815Z,6.60
2023-03-06T11:06:13.654Z,6.30
2023-03-06T11:08:48.214Z,6.00
2023-03-06T11:11:36.675Z,6.80
2023-03-06T11:14:16.818Z,7.20
2023-03-06T11:16:53.424Z,7.90
2023-03-06T11:19:26.836Z,9.30
2023-03-06T11:22:05.580Z,9.70
2023-03-06T11:24:40.333Z,10.20
2023-03-06T11:27:22.406Z,10.00
2023-03-06T11:29:53.846Z,9.90
2023-03-06T11:32:26.533Z,9.20
2023-03-06T11:35:00.152Z,8.80
2023-03-06T11:37:49.043Z,10.00
2023-03-06T11:40:25.221Z,9.90
2023-03-06T11:43:01.207Z,10.20
2023-03-06T11:45:35.208Z,10.20
2023-03-06T11:48:20.086Z,9.20
2023-03-06T11:50:51.604Z,8.90
2023-03-06T11:53:28.504Z,9.80
2023-03-06T11:56:04.788Z,10.80
2023-03-06T11:59:00.580Z,11.20
2023-03-06T12:01:34.696Z,11.00
2023-03-06T12:04:32.062Z,11.10
2023-03-06T12:07:11.704Z,11.20
2023-03-06T12:09:48.229Z,11.50
2023-03-06T12:12:30.964Z,11.10
2023-03-06T12:15:20.755Z,9.70
2023-03-06T12:18:08.938Z,8.80
2023-03-06T12:20:59.440Z,8.30
2023-03-06T12:23:55.666Z,8.10
2023-03-06T12:26:46.103Z,10.00
2023-03-06T12:29:37.199Z,11.10
2023-03-06T12:32:17.254Z,12.80
2023-03-06T12:35:01.191Z,12.30
2023-03-06T12:37:39.435Z,12.70
2023-03-06T12:40:36.350Z,13.20
2023-03-06T12:43:36.998Z,13.00
2023-03-06T12:46:13.821Z,12.60
2023-03-06T12:48:49.306Z,13.50
2023-03-06T12:51:21.237Z,13.90
2023-03-06T12:53:51.638Z,14.40
2023-03-06T12:56:22.692Z,14.30
2023-03-06T12:58:55.344Z,13.80
2023-03-06T13:01:48.120Z,12.00
2023-03-06T13:04:43.708Z,10.80
2023-03-06T13:07:34.339Z,12.40
2023-03-06T13:10:27.078Z,13.40
2023-03-06T13:12:57.963Z,13.50
2023-03-06T13:15:42.557Z,13.40
2023-03-06T13:18:45.017Z,14.50
2023-03-06T13:21:47.082Z,15.60
2023-03-06T13:24:19.570Z,16.50
2023-03-06T13:27:10.506Z,16.80
2023-03-06T13:30:04.626Z,15.90
2023-03-06T13:32:37.651Z,14.20
2023-03-06T13:35:48.865Z,14.10
2023-03-06T13:38:39.360Z,13.60
2023-03-06T13:41:38.506Z,13.40
2023-03-06T13:44:47.921Z,14.10
2023-03-06T13:48:06.496Z,14.80
2023-03-06T13:50:42.710Z,14.40
2023-03-06T13:53:35.317Z,14.40
2023-03-06T13:56:55.293Z,13.90
2023-03-06T13:59:50.458Z,13.90
2023-03-06T14:02:56.173Z,13.30
2023-03-06T14:05:25.777Z,13.40
2023-03-06T14:08:08.533Z,13.90
2023-03-06T14:10:39.998Z,13.50
2023-03-06T14:13:16.304Z,13.20
2023-03-06T14:15:47.164Z,13.20
2023-03-06T14:18:21.270Z,13.10
2023-03-06T14:20:55.339Z,13.10
2023-03-06T14:23:32.513Z,12.90
2023-03-06T14:26:08.201Z,12.60
2023-03-06T14:28:38.669Z,12.50
2023-03-06T14:31:08.084Z,11.90
2023-03-06T14:33:44.912Z,11.10
2023-03-06T14:36:17.676Z,10.70
2023-03-06T14:38:49.972Z,11.40
2023-03-06T14:41:28.087Z,11.80
2023-03-06T14:44:10.524Z,11.80
2023-03-06T14:46:40.557Z,11.00
2023-03-06T14:49:11.840Z,10.20
2023-03-06T14:51:45.976Z,9.70
2023-03-06T14:54:21.253Z,9.80
2023-03-06T14:56:54.872Z,9.50
2023-03-06T14:59:28.085Z,9.40
2023-03-06T15:02:01.711Z,9.40
2023-03-06T15:04:37.939Z,9.50
2023-03-06T15:07:10.746Z,9.80
2023-03-06T15:09:40.703Z,10.10
2023-03-06T15:12:34.304Z,10.20
2023-03-06T15:15:04.468Z,10.70
2023-03-06T15:17:39.741Z,10.80
2023-03-06T15:20:42.906Z,11.00
2023-03-06T15:23:20.751Z,11.10
2023-03-06T15:25:55.656Z,11.20
2023-03-06T15:28:34.819Z,10.60
2023-03-06T15:31:07.141Z,9.90
2023-03-06T15:33:36.650Z,9.80
2023-03-06T15:36:18.904Z,9.50
2023-03-06T15:38:49.693Z,9.10
2023-03-06T15:41:30.148Z,9.60
2023-03-06T15:44:00.005Z,10.20
2023-03-06T15:46:30.753Z,10.30
2023-03-06T15:49:04.392Z,10.00
2023-03-06T15:51:36.244Z,9.40
2023-03-06T15:54:12.434Z,8.60
2023-03-06T15:56:44.702Z,8.10
2023-03-06T15:59:19.143Z,7.90
2023-03-06T16:01:48.036Z,7.60
2023-03-06T16:04:18.028Z,7.50
2023-03-06T16:06:48.688Z,7.40
2023-03-06T16:09:17.852Z,7.30
2023-03-06T16:11:47.941Z,7.20
2023-03-06T16:14:21.541Z,7.10
2023-03-06T16:16:54.758Z,7.10
2023-03-06T16:19:27.653Z,7.10
2023-03-06T16:21:59.773Z,7.00
2023-03-06T16:24:29.905Z,6.80
2023-03-06T16:27:03.066Z,6.80
2023-03-06T16:29:32.537Z,6.60
2023-03-06T16:32:03.159Z,6.50
2023-03-06T16:34:32.535Z,6.30
2023-03-06T16:37:05.219Z,6.10
2023-03-06T16:39:34.310Z,5.80
2023-03-06T16:42:03.725Z,5.60
2023-03-06T16:44:50.413Z,5.50
2023-03-06T16:47:20.667Z,5.50
2023-03-06T16:49:50.407Z,5.40
2023-03-06T16:52:19.645Z,5.40
2023-03-06T17:03:51.316Z,5.10
2023-03-06T17:06:22.995Z,5.10
2023-03-06T17:08:52.740Z,5.10
2023-03-06T17:11:22.100Z,5.10
2023-03-06T17:14:17.973Z,5.10
2023-03-06T17:19:37.216Z,5.00
2023-03-06T17:22:05.910Z,5.00
2023-03-06T17:24:38.266Z,5.00
2023-03-06T17:27:07.533Z,5.00
2023-03-06T17:29:36.565Z,5.10
2023-03-06T17:32:10.935Z,5.10
2023-03-06T17:34:43.688Z,5.20
2023-03-06T17:37:13.206Z,5.20
2023-03-06T17:39:42.474Z,5.20
2023-03-06T17:42:11.892Z,5.20
2023-03-06T17:44:41.289Z,5.20
2023-03-06T17:47:10.532Z,5.20
2023-03-06T17:51:24.146Z,5.20
2023-03-06T17:57:47.492Z,5.10
2023-03-06T18:00:24.333Z,5.10
2023-03-06T19:13:26.237Z,5.10
2023-03-06T21:27:22.721Z,5.10
2023-03-06T21:30:32.887Z,5.00
2023-03-06T21:33:24.436Z,5.10
2023-03-06T21:36:24.042Z,4.80
2023-03-06T21:39:11.214Z,4.80
2023-03-06T21:41:52.122Z,4.70
2023-03-06T21:44:26.272Z,4.50
2023-03-06T21:47:06.711Z,4.40
2023-03-06T21:50:11.140Z,4.30
2023-03-06T21:52:59.446Z,4.20
2023-03-06T21:55:51.468Z,4.10
2023-03-06T21:58:38.506Z,4.10
2023-03-06T22:01:13.101Z,4.00
2023-03-06T22:03:41.908Z,4.00
2023-03-06T22:06:11.670Z,4.00
2023-03-06T22:08:40.249Z,3.90
2023-03-06T22:11:10.419Z,3.90
2023-03-06T22:13:39.549Z,3.90
2023-03-06T22:16:09.078Z,3.90
2023-03-06T22:18:39.338Z,3.90
2023-03-06T22:21:09.018Z,3.90
2023-03-06T22:23:37.747Z,3.90
2023-03-06T22:26:07.587Z,3.90
2023-03-06T22:28:36.156Z,3.90
2023-03-06T22:31:06.301Z,3.90
2023-03-06T22:33:34.685Z,3.90
2023-03-06T22:36:07.321Z,3.90
2023-03-06T22:38:36.854Z,3.90
2023-03-06T22:41:05.982Z,3.90
2023-03-06T22:43:34.945Z,3.90
2023-03-06T22:46:04.126Z,3.90
2023-03-06T22:48:33.621Z,3.90
2023-03-06T22:51:09.477Z,3.90
2023-03-06T22:53:38.487Z,4.00
2023-03-06T22:56:10.940Z,4.00
2023-03-06T22:58:39.451Z,4.00
2023-03-06T23:01:09.839Z,4.00
2023-03-06T23:03:39.374Z,4.10
2023-03-06T23:06:12.186Z,4.10
2023-03-06T23:08:41.121Z,4.10
2023-03-06T23:11:11.107Z,4.10
2023-03-06T23:13:58.917Z,4.20
2023-03-06T23:16:46.886Z,4.20
2023-03-06T23:19:33.875Z,4.20
2023-03-06T23:22:22.647Z,4.20
2023-03-06T23:25:10.768Z,4.30
2023-03-06T23:27:39.604Z,4.30
2023-03-06T23:30:09.587Z,4.30
2023-03-06T23:32:38.359Z,4.30
2023-03-06T23:35:07.677Z,4.30
2023-03-06T23:37:37.754Z,4.40
2023-03-06T23:40:09.600Z,4.30
2023-03-06T23:42:38.293Z,4.40
2023-03-06T23:45:07.958Z,4.40
2023-03-06T23:47:36.785Z,4.40
2023-03-06T23:50:05.857Z,4.40
2023-03-06T23:52:34.393Z,4.40
2023-03-06T23:55:04.565Z,4.40
2023-03-06T23:57:33.451Z,4.40
